Mansfield Lahm Regional Airport Mansfield US
ICAO: KMFD
IATA: MFD
Category: Medium
Scheduled Services: No

Elevation: 1297 ft
TransAlt. 18000 ft.

Airport Communications:
APP/DEP:124.2
ATIS:125.3
CTAF:119.8
GND:121.8
HERC COMD POST:29.75
CLEVELAND RDO:122.6
TWR:119.8
UNICOM:122.95

KMFD Zoom In..

If you have problems with the map follow the link
https://www.worldairports.se/pages/airport.php?
ICAO=KMFD

Runways:

(A) RW 05 length 6800 ft width 150 ft
---- / hdg 53

(B) RW 14 length 9001 ft width 150 ft
---- / hdg 143

(C) RW 23 length 6800 ft width 150 ft
---- / hdg 233

(D) RW 32 length 9001 ft width 150 ft
ILS 110.50 / hdg 323

Location; KMFD
Day. 06 / Time. 12.52 Zulu
* Altimeter: 29.94
* Temperature: 08° c. 46.4°f.
* Wind from: 220° Speed 11 kn.
Dewpoint: 00° c.
Visibility: 10 Statute Miles.
Clouds: Broken 9500 ft.

KMFD 061252Z 22011KT 10SM BKN095 08/00 A2994 RMK AO2 SLP146 T00780000


Wind From 220°
Speed 11 kn.

 
 
jpsmedia worldairports.se 2019   terms of use